sensor_id;sensor_type;location;lat;lon;timestamp;pressure;altitude;pressure_sealevel;temperature;humidity
57234;BME280;43090;52.604;13.318;2023-10-08T02:20:10;101398.78;;;12.53;100.00
57234;BME280;43090;52.604;13.318;2023-10-08T02:25:24;101415.09;;;12.37;100.00
57234;BME280;43090;52.604;13.318;2023-10-08T02:28:00;101453.13;;;12.43;100.00
57234;BME280;43090;52.604;13.318;2023-10-08T02:30:29;101425.44;;;12.03;100.00
57234;BME280;43090;52.604;13.318;2023-10-08T02:57:54;101459.56;;;12.81;100.00
57234;BME280;43090;52.604;13.318;2023-10-08T03:00:22;101430.78;;;12.43;100.00
57234;BME280;43090;52.604;13.318;2023-10-08T03:02:57;101436.91;;;12.32;100.00
57234;BME280;43090;52.604;13.318;2023-10-08T03:05:25;101431.53;;;12.05;100.00
57234;BME280;43090;52.604;13.318;2023-10-08T03:07:56;101416.94;;;12.09;100.00
57234;BME280;43090;52.604;13.318;2023-10-08T03:10:25;101422.81;;;12.01;100.00
57234;BME280;43090;52.604;13.318;2023-10-08T03:13:03;101431.50;;;12.19;100.00
57234;BME280;43090;52.604;13.318;2023-10-08T03:15:37;101425.97;;;12.08;100.00
57234;BME280;43090;52.604;13.318;2023-10-08T03:18:22;101428.75;;;12.33;100.00
57234;BME280;43090;52.604;13.318;2023-10-08T03:21:04;101441.94;;;12.37;100.00
57234;BME280;43090;52.604;13.318;2023-10-08T03:23:54;101477.31;;;12.43;100.00
57234;BME280;43090;52.604;13.318;2023-10-08T03:26:24;101449.00;;;12.25;100.00
57234;BME280;43090;52.604;13.318;2023-10-08T03:29:00;101455.53;;;11.93;100.00
57234;BME280;43090;52.604;13.318;2023-10-08T03:31:27;101455.72;;;11.90;100.00
57234;BME280;43090;52.604;13.318;2023-10-08T03:34:14;101477.41;;;12.42;100.00
57234;BME280;43090;52.604;13.318;2023-10-08T03:36:44;101474.78;;;12.27;100.00
57234;BME280;43090;52.604;13.318;2023-10-08T03:39:22;101460.84;;;12.35;100.00
57234;BME280;43090;52.604;13.318;2023-10-08T03:42:12;101485.28;;;12.18;100.00
57234;BME280;43090;52.604;13.318;2023-10-08T03:44:53;101512.53;;;12.11;100.00
57234;BME280;43090;52.604;13.318;2023-10-08T03:47:22;101488.25;;;12.13;100.00
57234;BME280;43090;52.604;13.318;2023-10-08T03:49:49;101512.03;;;12.19;100.00
57234;BME280;43090;52.604;13.318;2023-10-08T03:52:18;101526.25;;;12.34;100.00
57234;BME280;43090;52.604;13.318;2023-10-08T03:54:54;101517.44;;;12.05;100.00
57234;BME280;43090;52.604;13.318;2023-10-08T03:57:47;101542.41;;;12.20;100.00
57234;BME280;43090;52.604;13.318;2023-10-08T04:00:24;101545.69;;;12.10;100.00
57234;BME280;43090;52.604;13.318;2023-10-08T04:02:58;101541.19;;;12.11;100.00
57234;BME280;43090;52.604;13.318;2023-10-08T04:05:36;101528.28;;;12.03;100.00
57234;BME280;43090;52.604;13.318;2023-10-08T04:08:21;101529.31;;;12.15;100.00
57234;BME280;43090;52.604;13.318;2023-10-08T04:11:24;101530.47;;;12.11;100.00
57234;BME280;43090;52.604;13.318;2023-10-08T04:14:02;101557.22;;;12.40;100.00
57234;BME280;43090;52.604;13.318;2023-10-08T04:16:45;101546.09;;;12.04;100.00
57234;BME280;43090;52.604;13.318;2023-10-08T04:19:23;101570.06;;;12.07;100.00
57234;BME280;43090;52.604;13.318;2023-10-08T04:21:56;101575.31;;;12.09;100.00
57234;BME280;43090;52.604;13.318;2023-10-08T04:24:30;101558.06;;;11.98;100.00
57234;BME280;43090;52.604;13.318;2023-10-08T04:27:03;101556.53;;;12.09;100.00
57234;BME280;43090;52.604;13.318;2023-10-08T04:29:44;101602.22;;;12.36;100.00
57234;BME280;43090;52.604;13.318;2023-10-08T04:32:18;101572.16;;;12.16;100.00
57234;BME280;43090;52.604;13.318;2023-10-08T04:35:01;101603.88;;;12.24;100.00
57234;BME280;43090;52.604;13.318;2023-10-08T04:37:35;101586.84;;;12.11;100.00
57234;BME280;43090;52.604;13.318;2023-10-08T04:40:02;101607.31;;;12.26;100.00
57234;BME280;43090;52.604;13.318;2023-10-08T04:42:32;101580.13;;;12.04;100.00
57234;BME280;43090;52.604;13.318;2023-10-08T04:45:26;101596.22;;;12.04;100.00
57234;BME280;43090;52.604;13.318;2023-10-08T04:47:53;101597.09;;;12.19;100.00
57234;BME280;43090;52.604;13.318;2023-10-08T04:50:24;101583.09;;;12.13;100.00
57234;BME280;43090;52.604;13.318;2023-10-08T04:52:59;101585.47;;;12.04;100.00
57234;BME280;43090;52.604;13.318;2023-10-08T04:59:46;101595.19;;;11.63;100.00
57234;BME280;43090;52.604;13.318;2023-10-08T05:02:18;101623.53;;;11.81;100.00
57234;BME280;43090;52.604;13.318;2023-10-08T05:05:24;101627.53;;;11.60;100.00
57234;BME280;43090;52.604;13.318;2023-10-08T05:08:08;101640.44;;;11.53;100.00
57234;BME280;43090;52.604;13.318;2023-10-08T05:11:02;101639.47;;;11.40;100.00
57234;BME280;43090;52.604;13.318;2023-10-08T05:13:42;101661.53;;;11.59;100.00
57234;BME280;43090;52.604;13.318;2023-10-08T05:16:22;101649.47;;;11.66;100.00
57234;BME280;43090;52.604;13.318;2023-10-08T05:19:11;101634.09;;;11.40;100.00
57234;BME280;43090;52.604;13.318;2023-10-08T05:21:56;101658.63;;;11.48;100.00
57234;BME280;43090;52.604;13.318;2023-10-08T05:24:53;101663.50;;;11.41;100.00
57234;BME280;43090;52.604;13.318;2023-10-08T05:28:05;101686.25;;;11.20;100.00
57234;BME280;43090;52.604;13.318;2023-10-08T05:31:13;101670.84;;;11.07;100.00
57234;BME280;43090;52.604;13.318;2023-10-08T05:33:47;101680.91;;;11.04;100.00
57234;BME280;43090;52.604;13.318;2023-10-08T05:36:40;101684.50;;;11.19;100.00
57234;BME280;43090;52.604;13.318;2023-10-08T05:39:38;101675.56;;;11.04;100.00
57234;BME280;43090;52.604;13.318;2023-10-08T05:42:15;101727.00;;;11.41;100.00
57234;BME280;43090;52.604;13.318;2023-10-08T05:45:02;101687.03;;;11.06;100.00
57234;BME280;43090;52.604;13.318;2023-10-08T05:47:44;101678.47;;;10.99;100.00
57234;BME280;43090;52.604;13.318;2023-10-08T05:50:33;101681.19;;;10.83;100.00
57234;BME280;43090;52.604;13.318;2023-10-08T05:53:34;101679.78;;;11.08;100.00
57234;BME280;43090;52.604;13.318;2023-10-08T05:56:34;101717.81;;;11.14;100.00
57234;BME280;43090;52.604;13.318;2023-10-08T05:59:25;101730.38;;;11.28;100.00
57234;BME280;43090;52.604;13.318;2023-10-08T06:02:30;101727.09;;;11.39;100.00
57234;BME280;43090;52.604;13.318;2023-10-08T06:05:19;101716.56;;;11.20;100.00
57234;BME280;43090;52.604;13.318;2023-10-08T06:08:21;101757.66;;;11.37;100.00
57234;BME280;43090;52.604;13.318;2023-10-08T06:33:57;101804.69;;;11.42;100.00
57234;BME280;43090;52.604;13.318;2023-10-08T06:52:20;101863.00;;;11.85;100.00
57234;BME280;43090;52.604;13.318;2023-10-08T06:55:54;101868.75;;;11.79;100.00
57234;BME280;43090;52.604;13.318;2023-10-08T07:07:24;101851.47;;;11.53;100.00
57234;BME280;43090;52.604;13.318;2023-10-08T07:31:53;101890.16;;;11.48;100.00
57234;BME280;43090;52.604;13.318;2023-10-08T07:34:49;101926.91;;;11.62;100.00
57234;BME280;43090;52.604;13.318;2023-10-08T08:00:46;101925.59;;;11.86;100.00
57234;BME280;43090;52.604;13.318;2023-10-08T08:51:45;101998.28;;;12.29;98.05
57234;BME280;43090;52.604;13.318;2023-10-08T09:02:23;101992.22;;;12.41;95.50
57234;BME280;43090;52.604;13.318;2023-10-08T09:05:40;101993.22;;;12.55;94.18
57234;BME280;43090;52.604;13.318;2023-10-08T09:09:12;102017.69;;;12.64;90.83
57234;BME280;43090;52.604;13.318;2023-10-08T09:12:39;101998.28;;;12.45;85.58
57234;BME280;43090;52.604;13.318;2023-10-08T09:19:36;102036.25;;;12.69;89.10
57234;BME280;43090;52.604;13.318;2023-10-08T09:22:40;102003.94;;;12.24;80.91
57234;BME280;43090;52.604;13.318;2023-10-08T09:37:01;102029.44;;;12.63;75.58
57234;BME280;43090;52.604;13.318;2023-10-08T09:39:29;102006.78;;;12.68;76.80
57234;BME280;43090;52.604;13.318;2023-10-08T09:49:10;102015.66;;;12.84;81.12
57234;BME280;43090;52.604;13.318;2023-10-08T10:22:11;102039.13;;;13.25;68.29
57234;BME280;43090;52.604;13.318;2023-10-08T10:32:13;102035.81;;;13.50;71.25
57234;BME280;43090;52.604;13.318;2023-10-08T10:35:41;102056.59;;;13.63;67.86
57234;BME280;43090;52.604;13.318;2023-10-08T10:39:29;102077.53;;;13.72;71.19
57234;BME280;43090;52.604;13.318;2023-10-08T10:42:47;102045.09;;;13.30;78.89
57234;BME280;43090;52.604;13.318;2023-10-08T10:45:37;102029.91;;;13.29;63.82
57234;BME280;43090;52.604;13.318;2023-10-08T11:04:17;102060.13;;;13.78;60.26
57234;BME280;43090;52.604;13.318;2023-10-08T11:07:43;102063.97;;;13.74;55.98
57234;BME280;43090;52.604;13.318;2023-10-08T11:10:57;102053.41;;;13.42;63.24
57234;BME280;43090;52.604;13.318;2023-10-08T11:17:27;102039.97;;;13.71;54.85
57234;BME280;43090;52.604;13.318;2023-10-08T11:19:56;102048.69;;;13.60;55.72
57234;BME280;43090;52.604;13.318;2023-10-08T11:23:01;102041.09;;;13.66;59.24
57234;BME280;43090;52.604;13.318;2023-10-08T11:32:54;102073.22;;;14.11;53.92
57234;BME280;43090;52.604;13.318;2023-10-08T11:35:32;102049.94;;;13.83;57.33
57234;BME280;43090;52.604;13.318;2023-10-08T11:42:11;102058.47;;;14.31;53.68
57234;BME280;43090;52.604;13.318;2023-10-08T11:55:03;102040.06;;;14.38;48.21
57234;BME280;43090;52.604;13.318;2023-10-08T12:01:11;102066.09;;;14.52;51.80
57234;BME280;43090;52.604;13.318;2023-10-08T12:11:29;102064.50;;;14.90;52.50
57234;BME280;43090;52.604;13.318;2023-10-08T12:18:32;102049.41;;;14.60;50.23
57234;BME280;43090;52.604;13.318;2023-10-08T12:22:01;102067.28;;;14.88;61.73
57234;BME280;43090;52.604;13.318;2023-10-08T12:24:50;102032.69;;;14.82;56.27
57234;BME280;43090;52.604;13.318;2023-10-08T12:27:17;102046.69;;;14.74;52.47
57234;BME280;43090;52.604;13.318;2023-10-08T12:29:46;102031.06;;;13.97;49.33
57234;BME280;43090;52.604;13.318;2023-10-08T12:36:36;102050.44;;;14.17;63.75
57234;BME280;43090;52.604;13.318;2023-10-08T12:39:19;102028.19;;;13.86;67.26
57234;BME280;43090;52.604;13.318;2023-10-08T12:41:54;102023.28;;;14.20;50.25
57234;BME280;43090;52.604;13.318;2023-10-08T13:02:42;102022.34;;;14.21;50.37
57234;BME280;43090;52.604;13.318;2023-10-08T13:05:09;102021.75;;;14.71;54.57
57234;BME280;43090;52.604;13.318;2023-10-08T13:11:11;102008.91;;;14.34;56.66
57234;BME280;43090;52.604;13.318;2023-10-08T13:20:53;102037.03;;;13.88;65.46
57234;BME280;43090;52.604;13.318;2023-10-08T13:23:23;102048.16;;;13.96;64.09
57234;BME280;43090;52.604;13.318;2023-10-08T13:25:59;102009.78;;;13.65;70.30
57234;BME280;43090;52.604;13.318;2023-10-08T13:28:51;102009.78;;;13.65;61.92
57234;BME280;43090;52.604;13.318;2023-10-08T13:31:23;102038.41;;;13.66;68.84
57234;BME280;43090;52.604;13.318;2023-10-08T13:38:24;102041.19;;;13.65;64.61
57234;BME280;43090;52.604;13.318;2023-10-08T13:48:16;102022.94;;;14.66;65.28
57234;BME280;43090;52.604;13.318;2023-10-08T13:50:59;102025.84;;;14.63;53.35
57234;BME280;43090;52.604;13.318;2023-10-08T13:54:12;102057.38;;;14.89;47.00
57234;BME280;43090;52.604;13.318;2023-10-08T13:57:04;102019.28;;;14.68;48.98
57234;BME280;43090;52.604;13.318;2023-10-08T14:03:44;102042.97;;;15.28;49.66
57234;BME280;43090;52.604;13.318;2023-10-08T14:09:41;102021.28;;;14.37;61.13
57234;BME280;43090;52.604;13.318;2023-10-08T14:12:14;101994.84;;;14.56;57.56
57234;BME280;43090;52.604;13.318;2023-10-08T14:14:41;102017.91;;;15.01;47.71
57234;BME280;43090;52.604;13.318;2023-10-08T14:24:56;102033.13;;;15.02;56.32
57234;BME280;43090;52.604;13.318;2023-10-08T14:41:51;102034.38;;;14.43;61.70
57234;BME280;43090;52.604;13.318;2023-10-08T14:49:26;102029.72;;;14.72;56.84
57234;BME280;43090;52.604;13.318;2023-10-08T15:14:08;102012.53;;;14.20;65.36
57234;BME280;43090;52.604;13.318;2023-10-08T15:16:53;102017.34;;;14.15;67.11
57234;BME280;43090;52.604;13.318;2023-10-08T15:19:24;102020.72;;;14.19;66.95
57234;BME280;43090;52.604;13.318;2023-10-08T15:29:32;102038.97;;;13.72;68.76
57234;BME280;43090;52.604;13.318;2023-10-08T15:46:13;102038.66;;;13.19;77.46
57234;BME280;43090;52.604;13.318;2023-10-08T15:48:40;102036.34;;;13.27;77.46
57234;BME280;43090;52.604;13.318;2023-10-08T15:51:08;102052.59;;;13.25;78.39
57234;BME280;43090;52.604;13.318;2023-10-08T15:53:34;102071.66;;;13.51;77.74
57234;BME280;43090;52.604;13.318;2023-10-08T15:56:07;102042.28;;;13.17;77.64
57234;BME280;43090;52.604;13.318;2023-10-08T16:02:09;102055.22;;;12.82;81.83
57234;BME280;43090;52.604;13.318;2023-10-08T16:04:37;102065.41;;;13.06;80.78
57234;BME280;43090;52.604;13.318;2023-10-08T16:07:07;102046.72;;;12.74;82.02
57234;BME280;43090;52.604;13.318;2023-10-08T16:09:38;102082.25;;;13.09;80.90
57234;BME280;43090;52.604;13.318;2023-10-08T16:12:05;102066.81;;;12.82;81.06
57234;BME280;43090;52.604;13.318;2023-10-08T16:14:34;102057.75;;;12.99;79.59
57234;BME280;43090;52.604;13.318;2023-10-08T16:17:01;102068.78;;;13.09;78.45
57234;BME280;43090;52.604;13.318;2023-10-08T16:19:39;102057.50;;;12.88;78.13
57234;BME280;43090;52.604;13.318;2023-10-08T16:22:43;102071.34;;;12.96;77.25
57234;BME280;43090;52.604;13.318;2023-10-08T16:25:14;102073.69;;;13.03;78.61
57234;BME280;43090;52.604;13.318;2023-10-08T16:27:47;102047.50;;;12.76;80.96
57234;BME280;43090;52.604;13.318;2023-10-08T16:30:23;102063.97;;;12.70;81.71
57234;BME280;43090;52.604;13.318;2023-10-08T16:32:59;102074.03;;;12.66;79.72
57234;BME280;43090;52.604;13.318;2023-10-08T16:35:34;102049.44;;;12.58;78.36
57234;BME280;43090;52.604;13.318;2023-10-08T16:38:05;102051.88;;;12.62;78.03
57234;BME280;43090;52.604;13.318;2023-10-08T16:40:32;102073.69;;;12.72;78.10
57234;BME280;43090;52.604;13.318;2023-10-08T16:43:01;102047.13;;;12.52;77.65
57234;BME280;43090;52.604;13.318;2023-10-08T16:45:37;102037.59;;;12.46;77.44
57234;BME280;43090;52.604;13.318;2023-10-08T16:48:08;102054.72;;;12.59;78.30
57234;BME280;43090;52.604;13.318;2023-10-08T16:50:53;102047.72;;;12.57;78.33
57234;BME280;43090;52.604;13.318;2023-10-08T16:53:30;102061.75;;;12.62;78.11
57234;BME280;43090;52.604;13.318;2023-10-08T16:56:17;102058.56;;;12.55;78.32
57234;BME280;43090;52.604;13.318;2023-10-08T16:58:56;102075.00;;;12.65;79.38
57234;BME280;43090;52.604;13.318;2023-10-08T17:01:25;102051.22;;;12.43;79.50
57234;BME280;43090;52.604;13.318;2023-10-08T17:03:56;102074.41;;;12.60;80.02
57234;BME280;43090;52.604;13.318;2023-10-08T17:06:23;102047.69;;;12.42;81.15
57234;BME280;43090;52.604;13.318;2023-10-08T17:08:50;102060.41;;;12.39;81.45
57234;BME280;43090;52.604;13.318;2023-10-08T17:11:17;102079.19;;;12.55;80.88
57234;BME280;43090;52.604;13.318;2023-10-08T17:13:46;102050.44;;;12.25;82.15
57234;BME280;43090;52.604;13.318;2023-10-08T17:16:16;102054.25;;;12.21;81.75
57234;BME280;43090;52.604;13.318;2023-10-08T17:18:44;102055.03;;;12.39;82.10
57234;BME280;43090;52.604;13.318;2023-10-08T17:21:11;102049.84;;;12.20;82.94
57234;BME280;43090;52.604;13.318;2023-10-08T17:23:38;102055.31;;;12.18;81.90
57234;BME280;43090;52.604;13.318;2023-10-08T17:26:08;102075.72;;;12.53;82.14
57234;BME280;43090;52.604;13.318;2023-10-08T17:28:37;102050.19;;;12.29;83.54
57234;BME280;43090;52.604;13.318;2023-10-08T17:31:05;102046.63;;;12.13;86.16
57234;BME280;43090;52.604;13.318;2023-10-08T17:33:33;102030.38;;;12.00;86.87
57234;BME280;43090;52.604;13.318;2023-10-08T17:35:59;102043.88;;;12.30;86.77
57234;BME280;43090;52.604;13.318;2023-10-08T17:38:26;102064.13;;;12.52;85.68
57234;BME280;43090;52.604;13.318;2023-10-08T17:40:53;102021.34;;;12.17;86.46
57234;BME280;43090;52.604;13.318;2023-10-08T17:43:20;102027.59;;;12.33;85.30
57234;BME280;43090;52.604;13.318;2023-10-08T17:45:47;102044.44;;;12.36;84.40
57234;BME280;43090;52.604;13.318;2023-10-08T17:48:14;102021.13;;;12.06;84.55
57234;BME280;43090;52.604;13.318;2023-10-08T17:50:41;102037.28;;;12.36;84.15
57234;BME280;43090;52.604;13.318;2023-10-08T17:53:08;102048.19;;;12.49;84.25
57234;BME280;43090;52.604;13.318;2023-10-08T17:59:28;102020.94;;;12.09;85.79
57234;BME280;43090;52.604;13.318;2023-10-08T18:01:58;101998.69;;;12.07;84.96
57234;BME280;43090;52.604;13.318;2023-10-08T18:04:24;102017.06;;;12.14;85.00
57234;BME280;43090;52.604;13.318;2023-10-08T18:06:54;102032.19;;;12.15;86.17
57234;BME280;43090;52.604;13.318;2023-10-08T18:09:27;102004.72;;;12.10;86.19
57234;BME280;43090;52.604;13.318;2023-10-08T18:11:57;102001.72;;;12.00;86.92
57234;BME280;43090;52.604;13.318;2023-10-08T18:14:24;102004.06;;;12.07;88.12
57234;BME280;43090;52.604;13.318;2023-10-08T18:16:51;102025.97;;;12.15;88.22
57234;BME280;43090;52.604;13.318;2023-10-08T18:19:18;102002.22;;;11.91;88.81
57234;BME280;43090;52.604;13.318;2023-10-08T18:21:45;101990.88;;;11.86;87.58
57234;BME280;43090;52.604;13.318;2023-10-08T18:24:30;102013.38;;;12.15;87.43
57234;BME280;43090;52.604;13.318;2023-10-08T18:34:19;101980.13;;;11.70;88.43
57234;BME280;43090;52.604;13.318;2023-10-08T18:40:43;102028.88;;;11.94;88.48
57234;BME280;43090;52.604;13.318;2023-10-08T18:43:16;102002.03;;;11.94;87.94
57234;BME280;43090;52.604;13.318;2023-10-08T18:53:11;102016.00;;;12.01;88.47
57234;BME280;43090;52.604;13.318;2023-10-08T18:55:39;101982.63;;;11.73;89.76
57234;BME280;43090;52.604;13.318;2023-10-08T19:06:17;101976.81;;;11.33;91.34
57234;BME280;43090;52.604;13.318;2023-10-08T19:59:02;101927.00;;;11.29;88.82
57234;BME280;43090;52.604;13.318;2023-10-08T20:01:44;101916.78;;;11.36;88.15
57234;BME280;43090;52.604;13.318;2023-10-08T20:04:17;101947.31;;;11.49;88.57
57234;BME280;43090;52.604;13.318;2023-10-08T20:06:54;101898.88;;;11.36;88.51
57234;BME280;43090;52.604;13.318;2023-10-08T20:16:19;101914.19;;;11.34;87.98
57234;BME280;43090;52.604;13.318;2023-10-08T20:18:56;101932.69;;;11.55;86.95
57234;BME280;43090;52.604;13.318;2023-10-08T20:21:27;101912.69;;;11.28;85.68
57234;BME280;43090;52.604;13.318;2023-10-08T20:23:58;101909.44;;;11.23;86.29
57234;BME280;43090;52.604;13.318;2023-10-08T20:26:48;101918.06;;;11.28;86.68
57234;BME280;43090;52.604;13.318;2023-10-08T20:33:54;101899.75;;;11.21;87.04
57234;BME280;43090;52.604;13.318;2023-10-08T20:36:45;101900.78;;;11.18;88.67
57234;BME280;43090;52.604;13.318;2023-10-08T20:39:26;101894.50;;;11.02;89.21
57234;BME280;43090;52.604;13.318;2023-10-08T20:42:16;101938.06;;;11.39;87.18
57234;BME280;43090;52.604;13.318;2023-10-08T20:44:47;101915.22;;;11.31;86.94
57234;BME280;43090;52.604;13.318;2023-10-08T20:48:16;101963.25;;;11.52;86.56
57234;BME280;43090;52.604;13.318;2023-10-08T20:58:19;101925.06;;;11.31;87.29
57234;BME280;43090;52.604;13.318;2023-10-08T21:01:03;101894.78;;;10.97;88.23
57234;BME280;43090;52.604;13.318;2023-10-08T21:03:33;101912.44;;;11.17;88.41
57234;BME280;43090;52.604;13.318;2023-10-08T21:06:07;101913.16;;;11.37;87.43
57234;BME280;43090;52.604;13.318;2023-10-08T21:08:52;101888.84;;;11.24;86.37
57234;BME280;43090;52.604;13.318;2023-10-08T21:11:42;101875.59;;;11.05;86.14
57234;BME280;43090;52.604;13.318;2023-10-08T21:14:19;101876.53;;;10.88;86.41
57234;BME280;43090;52.604;13.318;2023-10-08T21:17:22;101864.59;;;10.93;86.56
57234;BME280;43090;52.604;13.318;2023-10-08T21:20:08;101865.03;;;11.02;85.61
57234;BME280;43090;52.604;13.318;2023-10-08T21:22:59;101900.16;;;11.13;85.70
57234;BME280;43090;52.604;13.318;2023-10-08T21:25:37;101873.69;;;11.07;86.20
57234;BME280;43090;52.604;13.318;2023-10-08T21:28:09;101840.38;;;10.95;87.04
57234;BME280;43090;52.604;13.318;2023-10-08T21:30:40;101864.19;;;11.01;87.28
57234;BME280;43090;52.604;13.318;2023-10-08T21:33:27;101855.72;;;11.09;85.32
57234;BME280;43090;52.604;13.318;2023-10-08T21:36:12;101879.25;;;11.20;85.23
57234;BME280;43090;52.604;13.318;2023-10-08T21:38:45;101865.72;;;11.05;85.20
57234;BME280;43090;52.604;13.318;2023-10-08T21:41:55;101866.53;;;11.23;85.11
57234;BME280;43090;52.604;13.318;2023-10-08T21:44:48;101835.56;;;11.02;86.21
57234;BME280;43090;52.604;13.318;2023-10-08T21:47:37;101837.09;;;11.06;86.13
57234;BME280;43090;52.604;13.318;2023-10-08T21:50:15;101859.16;;;11.11;85.03
57234;BME280;43090;52.604;13.318;2023-10-08T21:52:51;101852.44;;;11.04;86.54
57234;BME280;43090;52.604;13.318;2023-10-08T21:55:26;101847.06;;;11.04;87.62
57234;BME280;43090;52.604;13.318;2023-10-08T21:58:30;101829.22;;;10.71;88.03
57234;BME280;43090;52.604;13.318;2023-10-08T22:01:28;101838.50;;;10.63;89.01
57234;BME280;43090;52.604;13.318;2023-10-08T22:04:33;101826.84;;;10.64;89.54
57234;BME280;43090;52.604;13.318;2023-10-08T22:07:22;101830.91;;;10.56;88.46
57234;BME280;43090;52.604;13.318;2023-10-08T22:10:06;101856.03;;;11.03;88.21
57234;BME280;43090;52.604;13.318;2023-10-08T22:15:45;101838.75;;;10.92;88.56
57234;BME280;43090;52.604;13.318;2023-10-08T22:18:46;101812.13;;;11.05;87.77
57234;BME280;43090;52.604;13.318;2023-10-08T22:21:41;101807.81;;;11.03;87.49
57234;BME280;43090;52.604;13.318;2023-10-08T22:24:10;101830.19;;;11.02;87.62
57234;BME280;43090;52.604;13.318;2023-10-08T22:26:39;101814.19;;;10.84;87.76
57234;BME280;43090;52.604;13.318;2023-10-08T22:29:16;101823.16;;;10.83;88.12
57234;BME280;43090;52.604;13.318;2023-10-08T22:31:52;101779.19;;;10.87;88.04
57234;BME280;43090;52.604;13.318;2023-10-08T22:34:21;101796.47;;;11.13;88.42
57234;BME280;43090;52.604;13.318;2023-10-08T22:37:29;101812.66;;;11.28;88.03
57234;BME280;43090;52.604;13.318;2023-10-08T22:40:49;101750.06;;;10.65;87.80
57234;BME280;43090;52.604;13.318;2023-10-08T22:44:02;101740.03;;;10.84;87.86
57234;BME280;43090;52.604;13.318;2023-10-08T22:46:29;101752.13;;;11.08;87.53
57234;BME280;43090;52.604;13.318;2023-10-08T22:49:00;101727.94;;;10.93;88.16
57234;BME280;43090;52.604;13.318;2023-10-08T22:51:33;101734.16;;;10.94;88.43
57234;BME280;43090;52.604;13.318;2023-10-08T23:05:17;101708.75;;;10.85;89.35
57234;BME280;43090;52.604;13.318;2023-10-08T23:07:55;101731.56;;;11.08;89.65
57234;BME280;43090;52.604;13.318;2023-10-08T23:10:34;101698.72;;;10.89;89.59
57234;BME280;43090;52.604;13.318;2023-10-08T23:13:09;101716.22;;;11.26;89.56
57234;BME280;43090;52.604;13.318;2023-10-08T23:15:53;101747.25;;;11.30;89.01
57234;BME280;43090;52.604;13.318;2023-10-08T23:18:32;101739.16;;;11.16;87.36
57234;BME280;43090;52.604;13.318;2023-10-08T23:21:10;101722.31;;;10.98;86.93
57234;BME280;43090;52.604;13.318;2023-10-08T23:24:39;101714.81;;;11.05;87.75
57234;BME280;43090;52.604;13.318;2023-10-08T23:27:49;101716.78;;;11.17;88.25
57234;BME280;43090;52.604;13.318;2023-10-08T23:35:03;101742.97;;;11.12;87.84
57234;BME280;43090;52.604;13.318;2023-10-08T23:37:46;101786.25;;;11.36;87.90
57234;BME280;43090;52.604;13.318;2023-10-08T23:40:42;101770.97;;;11.22;89.55
57234;BME280;43090;52.604;13.318;2023-10-08T23:43:15;101745.47;;;10.99;90.75
57234;BME280;43090;52.604;13.318;2023-10-08T23:45:47;101748.13;;;11.15;90.13
57234;BME280;43090;52.604;13.318;2023-10-08T23:48:24;101745.81;;;11.25;89.72
57234;BME280;43090;52.604;13.318;2023-10-08T23:50:56;101749.59;;;11.37;88.88
57234;BME280;43090;52.604;13.318;2023-10-08T23:53:26;101755.22;;;11.32;89.18
57234;BME280;43090;52.604;13.318;2023-10-08T23:55:56;101734.66;;;11.00;89.73
57234;BME280;43090;52.604;13.318;2023-10-08T23:58:33;101731.47;;;11.10;89.41
